createdAt,value
2023-04-15T00:00:58.327Z,2.10
2023-04-15T00:03:25.394Z,2.10
2023-04-15T00:05:52.079Z,1.83
2023-04-15T00:08:18.445Z,1.75
2023-04-15T00:10:46.420Z,1.88
2023-04-15T00:13:12.755Z,1.53
2023-04-15T00:15:39.156Z,2.17
2023-04-15T00:18:05.480Z,2.22
2023-04-15T00:20:32.221Z,2.40
2023-04-15T00:23:00.456Z,1.73
2023-04-15T00:25:26.855Z,1.73
2023-04-15T00:27:53.620Z,1.65
2023-04-15T00:30:20.427Z,1.13
2023-04-15T00:32:46.953Z,1.80
2023-04-15T00:35:13.842Z,1.67
2023-04-15T00:37:40.459Z,2.10
2023-04-15T00:40:10.370Z,1.75
2023-04-15T00:42:36.726Z,1.50
2023-04-15T00:45:03.340Z,1.80
2023-04-15T00:47:31.349Z,2.25
2023-04-15T00:49:58.075Z,1.13
2023-04-15T00:52:24.556Z,1.83
2023-04-15T00:54:52.277Z,1.42
2023-04-15T00:57:19.052Z,1.80
2023-04-15T00:59:45.383Z,1.67
2023-04-15T01:02:12.125Z,1.57
2023-04-15T01:04:38.756Z,1.65
2023-04-15T01:07:05.152Z,1.70
2023-04-15T01:09:33.197Z,2.28
2023-04-15T01:11:59.740Z,1.63
2023-04-15T01:14:26.515Z,1.60
2023-04-15T01:16:53.187Z,1.55
2023-04-15T01:19:19.923Z,1.42
2023-04-15T01:21:46.920Z,1.90
2023-04-15T01:24:16.404Z,1.45
2023-04-15T01:26:44.530Z,1.60
2023-04-15T01:29:11.088Z,1.63
2023-04-15T01:31:37.593Z,2.05
2023-04-15T01:34:04.701Z,1.65
2023-04-15T01:36:31.068Z,1.73
2023-04-15T01:38:58.486Z,1.60
2023-04-15T01:41:28.390Z,1.48
2023-04-15T01:43:55.185Z,1.55
2023-04-15T01:46:21.624Z,1.52
2023-04-15T01:48:47.973Z,1.10
2023-04-15T01:51:14.426Z,1.03
2023-04-15T01:53:41.000Z,1.50
2023-04-15T01:56:08.033Z,1.73
2023-04-15T01:58:34.505Z,1.35
2023-04-15T02:01:02.341Z,1.95
2023-04-15T02:03:29.584Z,1.23
2023-04-15T02:05:56.709Z,1.55
2023-04-15T02:08:23.149Z,1.33
2023-04-15T02:10:49.566Z,1.33
2023-04-15T02:13:17.031Z,1.30
2023-04-15T02:15:50.621Z,1.75
2023-04-15T02:18:17.278Z,1.80
2023-04-15T02:20:44.040Z,1.70
2023-04-15T02:23:11.148Z,1.83
2023-04-15T02:25:38.886Z,1.50
2023-04-15T02:28:06.348Z,1.80
2023-04-15T02:30:33.809Z,1.80
2023-04-15T02:33:01.369Z,1.85
2023-04-15T02:35:27.832Z,1.95
2023-04-15T02:37:54.205Z,1.92
2023-04-15T02:40:20.720Z,2.30
2023-04-15T02:42:47.179Z,2.20
2023-04-15T02:45:13.595Z,1.95
2023-04-15T02:47:41.430Z,2.50
2023-04-15T02:50:12.425Z,2.05
2023-04-15T02:52:42.350Z,1.92
2023-04-15T02:55:09.677Z,2.53
2023-04-15T02:57:40.585Z,2.60
2023-04-15T03:00:09.609Z,1.33
2023-04-15T03:02:37.389Z,1.55
2023-04-15T03:05:04.519Z,1.75
2023-04-15T03:07:31.114Z,1.70
2023-04-15T03:09:57.755Z,1.70
2023-04-15T03:12:24.183Z,1.52
2023-04-15T03:14:50.792Z,2.03
2023-04-15T03:17:18.031Z,1.42
2023-04-15T03:19:44.443Z,1.83
2023-04-15T03:22:10.842Z,1.70
2023-04-15T03:24:37.285Z,2.40
2023-04-15T03:27:03.675Z,1.90
2023-04-15T03:29:30.037Z,1.95
2023-04-15T03:31:56.804Z,1.90
2023-04-15T03:34:23.186Z,2.13
2023-04-15T03:36:49.675Z,1.95
2023-04-15T03:39:16.551Z,1.65
2023-04-15T03:41:42.988Z,2.08
2023-04-15T03:44:09.427Z,2.38
2023-04-15T03:46:36.218Z,2.10
2023-04-15T03:49:02.898Z,2.20
2023-04-15T03:51:29.581Z,2.05
2023-04-15T03:53:55.988Z,1.83
2023-04-15T03:56:22.322Z,2.15
2023-04-15T03:58:48.707Z,2.35
2023-04-15T04:01:15.172Z,2.90
2023-04-15T04:03:41.748Z,2.25
2023-04-15T04:06:08.400Z,2.55
2023-04-15T04:08:34.816Z,1.98
2023-04-15T04:11:01.299Z,1.55
2023-04-15T04:13:27.611Z,2.10
2023-04-15T04:15:54.088Z,2.43
2023-04-15T04:18:20.598Z,1.70
2023-04-15T04:20:47.072Z,2.63
2023-04-15T04:23:13.512Z,2.38
2023-04-15T04:25:39.889Z,2.55
2023-04-15T04:28:06.284Z,2.07
2023-04-15T04:30:32.721Z,2.00
2023-04-15T04:32:59.177Z,2.53
2023-04-15T04:35:25.581Z,2.97
2023-04-15T04:37:52.435Z,2.03
2023-04-15T04:40:18.920Z,2.38
2023-04-15T04:42:45.445Z,2.25
2023-04-15T04:45:11.898Z,2.20
2023-04-15T04:47:38.292Z,2.42
2023-04-15T04:50:05.087Z,2.40
2023-04-15T04:52:31.604Z,3.07
2023-04-15T04:54:57.942Z,2.67
2023-04-15T04:57:24.264Z,2.58
2023-04-15T04:59:50.985Z,2.95
2023-04-15T05:02:17.498Z,2.97
2023-04-15T05:04:43.904Z,2.28
2023-04-15T05:07:10.788Z,2.83
2023-04-15T05:09:37.179Z,2.15
2023-04-15T05:12:07.670Z,2.72
2023-04-15T05:14:33.996Z,2.67
2023-04-15T05:17:00.309Z,3.03
2023-04-15T05:19:26.643Z,3.60
2023-04-15T05:21:52.981Z,2.65
2023-04-15T05:24:19.408Z,2.72
2023-04-15T05:26:46.286Z,2.63
2023-04-15T05:29:12.651Z,2.20
2023-04-15T05:31:39.182Z,2.72
2023-04-15T05:34:05.606Z,1.75
2023-04-15T05:36:32.003Z,2.55
2023-04-15T05:38:58.540Z,1.80
2023-04-15T05:41:24.929Z,1.87
2023-04-15T05:43:51.357Z,3.10
2023-04-15T05:46:17.732Z,1.33
2023-04-15T05:48:44.188Z,2.45
2023-04-15T05:51:11.011Z,2.65
2023-04-15T05:53:37.511Z,0.77
2023-04-15T05:56:04.203Z,2.05
2023-04-15T05:58:30.504Z,3.13
2023-04-15T06:00:57.026Z,3.10
2023-04-15T06:03:23.749Z,2.72
2023-04-15T06:05:50.182Z,3.75
2023-04-15T06:08:17.055Z,2.35
2023-04-15T06:10:43.436Z,2.50
2023-04-15T06:13:09.820Z,2.65
2023-04-15T06:15:36.673Z,3.25
2023-04-15T06:18:03.268Z,2.83
2023-04-15T06:20:29.708Z,3.00
2023-04-15T06:22:56.291Z,3.50
2023-04-15T06:25:22.975Z,2.70
2023-04-15T06:27:49.465Z,2.67
2023-04-15T06:30:15.996Z,3.28
2023-04-15T06:32:42.512Z,3.23
2023-04-15T06:35:09.475Z,3.08
2023-04-15T06:37:36.389Z,2.85
2023-04-15T06:40:04.956Z,3.20
2023-04-15T06:42:31.595Z,3.10
2023-04-15T06:44:57.979Z,3.10
2023-04-15T06:47:24.363Z,3.42
2023-04-15T06:49:50.916Z,3.28
2023-04-15T06:52:17.559Z,3.13
2023-04-15T06:54:43.981Z,2.95
2023-04-15T06:57:10.470Z,3.07
2023-04-15T06:59:36.784Z,3.38
2023-04-15T07:02:03.209Z,3.50
2023-04-15T07:04:29.697Z,3.55
2023-04-15T07:06:56.786Z,3.80
2023-04-15T07:09:24.621Z,3.40
2023-04-15T07:11:51.413Z,3.33
2023-04-15T07:14:18.052Z,2.60
2023-04-15T07:16:44.418Z,3.30
2023-04-15T07:19:10.912Z,3.83
2023-04-15T07:21:38.574Z,3.90
2023-04-15T07:24:06.731Z,3.20
2023-04-15T07:26:33.098Z,2.97
2023-04-15T07:28:59.550Z,3.33
2023-04-15T07:31:26.176Z,3.30
2023-04-15T07:33:53.275Z,2.97
2023-04-15T07:36:19.603Z,4.00
2023-04-15T07:38:45.988Z,3.00
2023-04-15T07:41:12.416Z,1.90
2023-04-15T07:43:38.902Z,2.63
2023-04-15T07:46:05.842Z,1.27
2023-04-15T07:48:32.315Z,1.23
2023-04-15T07:50:59.131Z,1.13
2023-04-15T07:53:26.085Z,2.20
2023-04-15T07:55:52.499Z,1.30
2023-04-15T07:58:18.876Z,1.63
2023-04-15T08:00:45.271Z,1.42
2023-04-15T08:03:11.918Z,0.95
2023-04-15T08:05:38.342Z,1.50
2023-04-15T08:08:04.961Z,1.17
2023-04-15T08:10:31.610Z,1.50
2023-04-15T08:12:58.415Z,0.77
2023-04-15T08:15:24.843Z,0.60
2023-04-15T08:17:51.429Z,1.98
2023-04-15T08:20:19.271Z,1.35
2023-04-15T08:22:47.727Z,0.80
2023-04-15T08:25:14.572Z,1.42
2023-04-15T08:27:41.010Z,1.08
2023-04-15T08:30:08.161Z,1.10
2023-04-15T08:32:34.575Z,1.48
2023-04-15T08:35:01.745Z,0.27
2023-04-15T08:37:28.105Z,0.77
2023-04-15T08:39:54.630Z,0.82
2023-04-15T08:42:27.932Z,0.82
2023-04-15T08:44:55.554Z,1.23
2023-04-15T08:47:27.242Z,0.40
2023-04-15T08:49:55.461Z,0.45
2023-04-15T08:52:22.478Z,0.47
2023-04-15T08:54:48.859Z,0.85
2023-04-15T08:57:15.987Z,1.02
2023-04-15T08:59:43.507Z,1.03
2023-04-15T09:02:09.974Z,0.98
2023-04-15T09:04:36.463Z,0.50
2023-04-15T09:07:02.851Z,0.90
2023-04-15T09:09:29.255Z,1.05
2023-04-15T09:11:55.843Z,0.87
2023-04-15T09:14:22.765Z,0.80
2023-04-15T09:17:00.043Z,0.85
2023-04-15T09:19:27.077Z,0.65
2023-04-15T09:21:58.687Z,1.52
2023-04-15T09:24:34.222Z,0.70
2023-04-15T09:27:01.039Z,0.52
2023-04-15T09:29:27.746Z,0.82
2023-04-15T09:31:54.108Z,0.57
2023-04-15T09:34:21.502Z,1.00
2023-04-15T09:36:50.930Z,0.63
2023-04-15T09:39:18.042Z,0.70
2023-04-15T09:41:44.542Z,0.65
2023-04-15T09:44:26.858Z,1.02
2023-04-15T09:46:53.457Z,0.80
2023-04-15T09:49:20.891Z,0.40
2023-04-15T09:51:58.011Z,0.73
2023-04-15T09:54:36.687Z,0.82
2023-04-15T09:57:10.233Z,0.80
2023-04-15T09:59:36.965Z,0.63
2023-04-15T10:02:06.415Z,0.60
2023-04-15T10:04:36.497Z,0.63
2023-04-15T10:07:05.045Z,0.52
2023-04-15T10:09:33.475Z,0.68
2023-04-15T10:12:01.051Z,0.82
2023-04-15T10:14:32.833Z,0.50
2023-04-15T10:17:04.348Z,0.30
2023-04-15T10:19:33.242Z,0.20
2023-04-15T10:22:00.199Z,0.50
2023-04-15T10:24:27.845Z,0.55
2023-04-15T10:26:55.265Z,0.50
2023-04-15T10:29:21.938Z,0.52
2023-04-15T10:31:48.895Z,0.30
2023-04-15T10:34:16.359Z,0.50
2023-04-15T10:36:42.828Z,0.38
2023-04-15T10:39:34.458Z,0.40
2023-04-15T10:42:16.816Z,0.57
2023-04-15T10:44:45.432Z,0.40
2023-04-15T10:47:18.993Z,0.73
2023-04-15T10:49:51.362Z,0.75
2023-04-15T10:52:22.768Z,0.63
2023-04-15T10:54:49.191Z,0.32
2023-04-15T10:57:22.559Z,0.47
2023-04-15T10:59:58.675Z,0.75
2023-04-15T11:02:46.510Z,0.70
2023-04-15T11:05:14.405Z,0.30
2023-04-15T11:07:46.933Z,0.45
2023-04-15T11:10:13.280Z,0.93
2023-04-15T11:12:41.075Z,0.40
2023-04-15T11:15:32.438Z,0.35
2023-04-15T11:18:20.739Z,0.30
2023-04-15T11:20:53.664Z,0.30
2023-04-15T11:23:27.595Z,0.22
2023-04-15T11:25:55.917Z,0.50
2023-04-15T11:28:25.959Z,0.35
2023-04-15T11:30:52.432Z,0.40
2023-04-15T11:33:18.867Z,0.30
2023-04-15T11:35:45.340Z,0.20
2023-04-15T11:38:13.790Z,0.47
2023-04-15T11:40:41.595Z,0.30
2023-04-15T11:43:16.606Z,0.40
2023-04-15T11:45:53.597Z,0.47
2023-04-15T11:48:22.185Z,0.40
2023-04-15T11:50:57.456Z,0.20
2023-04-15T11:53:24.861Z,0.43
2023-04-15T11:55:53.523Z,0.20
2023-04-15T11:58:24.810Z,0.32
2023-04-15T12:00:53.308Z,0.20
2023-04-15T12:03:31.878Z,0.40
2023-04-15T12:06:21.575Z,0.30
2023-04-15T12:08:52.773Z,0.30
2023-04-15T12:11:21.453Z,0.30
2023-04-15T12:13:50.200Z,0.45
2023-04-15T12:16:18.037Z,0.40
2023-04-15T12:18:50.929Z,0.20
2023-04-15T12:21:19.650Z,0.40
2023-04-15T12:23:53.479Z,0.30
2023-04-15T12:26:28.202Z,0.20
2023-04-15T12:29:06.957Z,0.20
2023-04-15T12:31:37.143Z,0.20
2023-04-15T12:34:07.634Z,0.20
2023-04-15T12:36:37.112Z,0.10
2023-04-15T12:39:05.061Z,0.17
2023-04-15T12:41:32.305Z,0.30
2023-04-15T12:43:59.222Z,0.30
2023-04-15T12:46:27.032Z,0.27
2023-04-15T12:48:53.421Z,0.20
2023-04-15T12:51:23.160Z,0.20
2023-04-15T12:53:49.738Z,0.10
2023-04-15T12:56:17.004Z,0.20
2023-04-15T12:58:43.391Z,0.20
2023-04-15T13:01:10.652Z,0.17
2023-04-15T13:03:37.278Z,0.40
2023-04-15T13:06:04.841Z,0.20
2023-04-15T13:08:31.819Z,0.10
2023-04-15T13:10:58.497Z,0.20
2023-04-15T13:13:24.869Z,0.20
2023-04-15T13:15:51.294Z,0.20
2023-04-15T13:18:17.671Z,0.40
2023-04-15T13:20:43.998Z,0.20
2023-04-15T13:23:10.533Z,0.17
2023-04-15T13:25:36.854Z,0.10
2023-04-15T13:28:03.272Z,0.20
2023-04-15T13:30:29.624Z,0.38
2023-04-15T13:32:56.081Z,0.20
2023-04-15T13:35:22.435Z,0.10
2023-04-15T13:37:48.826Z,0.20
2023-04-15T13:40:15.458Z,0.20
2023-04-15T13:42:42.965Z,0.10
2023-04-15T13:45:09.984Z,0.30
2023-04-15T13:47:36.500Z,0.20
2023-04-15T13:50:02.971Z,0.20
2023-04-15T13:52:29.346Z,0.15
2023-04-15T13:55:07.000Z,0.10
2023-04-15T13:57:42.249Z,0.20
2023-04-15T14:00:09.218Z,0.10
2023-04-15T14:02:35.781Z,0.20
2023-04-15T14:05:02.433Z,0.10
2023-04-15T14:07:31.933Z,0.10
2023-04-15T14:09:58.393Z,0.20
2023-04-15T14:12:24.725Z,0.20
2023-04-15T14:14:51.141Z,0.20
2023-04-15T14:17:17.609Z,0.10
2023-04-15T14:19:43.952Z,0.10
2023-04-15T14:22:10.622Z,0.32
2023-04-15T14:24:37.080Z,0.20
2023-04-15T14:27:03.588Z,0.22
2023-04-15T14:29:29.956Z,0.20
2023-04-15T14:32:04.293Z,0.10
2023-04-15T14:34:38.879Z,0.30
2023-04-15T14:37:05.281Z,0.23
2023-04-15T14:39:31.679Z,1.38
2023-04-15T14:41:58.713Z,0.10
2023-04-15T14:44:25.123Z,0.20
2023-04-15T14:46:51.878Z,0.20
2023-04-15T14:49:18.298Z,0.20
2023-04-15T14:51:44.687Z,0.15
2023-04-15T14:54:11.109Z,0.43
2023-04-15T14:56:37.662Z,0.10
2023-04-15T14:59:04.286Z,0.20
2023-04-15T15:01:30.865Z,0.10
2023-04-15T15:03:57.492Z,0.30
2023-04-15T15:06:25.963Z,0.32
2023-04-15T15:08:52.347Z,0.10
2023-04-15T15:11:18.743Z,0.10
2023-04-15T15:13:45.314Z,0.10
2023-04-15T15:16:14.289Z,0.13
2023-04-15T15:18:41.019Z,0.10
2023-04-15T15:21:07.387Z,0.10
2023-04-15T15:23:33.787Z,0.10
2023-04-15T15:26:00.345Z,0.10
2023-04-15T15:28:27.035Z,0.25
2023-04-15T15:30:53.373Z,0.20
2023-04-15T15:33:20.709Z,0.10
2023-04-15T15:35:47.168Z,0.25
2023-04-15T15:38:13.523Z,0.03
2023-04-15T15:40:39.931Z,0.10
2023-04-15T15:43:06.278Z,0.20
2023-04-15T15:45:32.825Z,0.20
2023-04-15T15:48:01.527Z,0.30
2023-04-15T15:50:27.893Z,0.07
2023-04-15T15:52:55.093Z,0.10
2023-04-15T15:55:21.568Z,0.15
2023-04-15T15:57:47.959Z,0.25
2023-04-15T16:00:14.646Z,0.10
2023-04-15T16:05:12.605Z,0.25
2023-04-15T16:07:38.981Z,0.10
2023-04-15T16:10:05.883Z,0.20
2023-04-15T16:12:33.850Z,0.00
2023-04-15T16:15:01.772Z,0.30
2023-04-15T16:17:28.154Z,0.10
2023-04-15T16:19:59.108Z,0.15
2023-04-15T16:22:27.290Z,0.20
2023-04-15T16:24:53.746Z,0.25
2023-04-15T16:27:20.090Z,0.57
2023-04-15T16:29:46.504Z,0.45
2023-04-15T16:32:13.021Z,0.15
2023-04-15T16:34:40.935Z,0.08
2023-04-15T16:37:07.234Z,0.10
2023-04-15T16:39:33.888Z,0.20
2023-04-15T16:42:00.342Z,0.10
2023-04-15T16:44:26.732Z,0.08
2023-04-15T16:46:53.100Z,0.55
2023-04-15T16:49:19.474Z,0.25
2023-04-15T16:51:45.850Z,0.40
2023-04-15T16:54:12.280Z,0.25
2023-04-15T16:56:38.665Z,0.13
2023-04-15T16:59:05.234Z,0.10
2023-04-15T17:01:31.907Z,0.10
2023-04-15T17:03:58.522Z,0.40
2023-04-15T17:06:24.961Z,0.30
2023-04-15T17:08:51.505Z,0.20
2023-04-15T17:11:17.944Z,0.03
2023-04-15T17:13:44.318Z,0.10
2023-04-15T17:16:10.924Z,0.20
2023-04-15T17:18:38.404Z,0.32
2023-04-15T17:21:05.180Z,0.25
2023-04-15T17:23:31.708Z,0.00
2023-04-15T17:25:58.126Z,0.10
2023-04-15T17:28:24.501Z,0.10
2023-04-15T17:30:50.909Z,0.10
2023-04-15T17:33:56.517Z,0.10
2023-04-15T17:36:04.297Z,0.55
2023-04-15T17:38:30.701Z,0.05
2023-04-15T17:40:57.014Z,0.20
2023-04-15T17:43:23.382Z,0.10
2023-04-15T17:45:50.820Z,0.10
2023-04-15T17:48:17.182Z,0.10
2023-04-15T17:50:43.484Z,0.40
2023-04-15T17:53:09.853Z,0.30
2023-04-15T17:55:36.598Z,0.10
2023-04-15T17:58:03.212Z,0.10
2023-04-15T18:00:29.548Z,0.20
2023-04-15T18:02:56.186Z,0.45
2023-04-15T18:05:22.970Z,0.10
2023-04-15T18:07:51.981Z,0.43
2023-04-15T18:10:18.734Z,0.10
2023-04-15T18:12:45.340Z,0.10
2023-04-15T18:15:11.753Z,0.20
2023-04-15T18:17:38.121Z,0.10
2023-04-15T18:20:06.195Z,0.10
2023-04-15T18:22:32.525Z,0.05
2023-04-15T18:25:03.933Z,0.08
2023-04-15T18:27:34.175Z,0.00
2023-04-15T18:30:00.812Z,0.17
2023-04-15T18:32:31.661Z,0.00
2023-04-15T18:34:58.344Z,0.15
2023-04-15T18:37:25.163Z,0.10
2023-04-15T18:39:51.686Z,0.10
2023-04-15T18:42:18.218Z,0.20
2023-04-15T18:44:44.595Z,0.35
2023-04-15T18:47:11.064Z,0.10
2023-04-15T18:49:37.476Z,0.10
2023-04-15T18:52:04.118Z,0.22
2023-04-15T18:54:30.625Z,0.10
2023-04-15T18:56:57.236Z,0.10
2023-04-15T18:59:29.573Z,0.08
2023-04-15T19:01:58.736Z,0.17
2023-04-15T19:04:25.415Z,0.30
2023-04-15T19:06:51.812Z,0.10
2023-04-15T19:09:18.211Z,0.10
2023-04-15T19:11:44.672Z,0.45
2023-04-15T19:14:11.637Z,0.17
2023-04-15T19:16:38.104Z,0.40
2023-04-15T19:19:06.504Z,0.20
2023-04-15T19:21:33.211Z,0.65
2023-04-15T19:24:00.476Z,0.50
2023-04-15T19:26:26.908Z,0.43
2023-04-15T19:28:53.894Z,0.10
2023-04-15T19:31:20.757Z,0.20
2023-04-15T19:33:47.247Z,0.15
2023-04-15T19:36:13.741Z,0.32
2023-04-15T19:38:40.333Z,0.08
2023-04-15T19:41:06.741Z,0.00
2023-04-15T19:43:33.272Z,0.33
2023-04-15T19:45:59.885Z,0.10
2023-04-15T19:48:26.393Z,0.35
2023-04-15T19:50:52.794Z,0.20
2023-04-15T19:53:19.135Z,0.73
2023-04-15T19:55:46.905Z,0.10
2023-04-15T19:58:13.271Z,0.30
2023-04-15T20:00:39.643Z,0.10
2023-04-15T20:03:06.298Z,0.30
2023-04-15T20:05:32.888Z,0.10
2023-04-15T20:08:03.165Z,0.27
2023-04-15T20:10:31.617Z,0.20
2023-04-15T20:12:58.033Z,0.10
2023-04-15T20:15:24.621Z,0.47
2023-04-15T20:17:51.113Z,0.30
2023-04-15T20:20:17.560Z,0.47
2023-04-15T20:22:43.908Z,0.25
2023-04-15T20:25:10.388Z,0.20
2023-04-15T20:27:36.836Z,0.25
2023-04-15T20:30:04.959Z,0.22
2023-04-15T20:32:35.848Z,0.10
2023-04-15T20:35:03.233Z,0.20
2023-04-15T20:37:30.840Z,0.10
2023-04-15T20:39:57.272Z,0.03
2023-04-15T20:42:23.593Z,0.20
2023-04-15T20:44:49.982Z,0.00
2023-04-15T20:47:16.533Z,0.10
2023-04-15T20:49:43.105Z,0.08
2023-04-15T20:52:09.652Z,0.20
2023-04-15T20:54:36.118Z,0.10
2023-04-15T20:57:02.563Z,0.83
2023-04-15T20:59:29.015Z,0.20
2023-04-15T21:01:57.031Z,0.50
2023-04-15T21:04:24.424Z,0.10
2023-04-15T21:06:52.008Z,0.30
2023-04-15T21:09:18.690Z,0.20
2023-04-15T21:14:18.595Z,0.17
2023-04-15T21:16:45.086Z,0.40
2023-04-15T21:19:11.485Z,0.47
2023-04-15T21:21:37.886Z,0.30
2023-04-15T21:24:04.351Z,0.22
2023-04-15T21:26:30.835Z,1.10
2023-04-15T21:28:57.231Z,0.70
2023-04-15T21:31:23.772Z,0.82
2023-04-15T21:33:50.295Z,0.40
2023-04-15T21:36:16.725Z,0.20
2023-04-15T21:38:43.047Z,0.40
2023-04-15T21:41:10.225Z,0.40
2023-04-15T21:43:37.122Z,0.30
2023-04-15T21:46:22.275Z,0.20
2023-04-15T21:48:50.182Z,0.30
2023-04-15T21:51:16.550Z,0.30
2023-04-15T21:53:43.029Z,0.20
2023-04-15T21:56:09.466Z,0.28
2023-04-15T21:58:36.143Z,0.30
2023-04-15T22:01:03.658Z,0.10
2023-04-15T22:03:33.518Z,0.40
2023-04-15T22:06:04.187Z,0.30
2023-04-15T22:08:38.244Z,0.40
2023-04-15T22:11:20.554Z,0.27
2023-04-15T22:13:47.041Z,0.20
2023-04-15T22:16:13.431Z,0.68
2023-04-15T22:18:39.766Z,0.55
2023-04-15T22:21:06.178Z,0.30
2023-04-15T22:23:32.505Z,0.30
2023-04-15T22:25:59.489Z,0.30
2023-04-15T22:28:25.902Z,0.22
2023-04-15T22:30:54.515Z,0.28
2023-04-15T22:33:20.984Z,0.17
2023-04-15T22:35:47.355Z,0.63
2023-04-15T22:38:13.787Z,0.22
2023-04-15T22:40:40.495Z,0.30
2023-04-15T22:43:06.887Z,0.20
2023-04-15T22:45:33.264Z,0.38
2023-04-15T22:47:59.714Z,0.53
2023-04-15T22:50:26.150Z,0.35
2023-04-15T22:52:52.614Z,0.20
2023-04-15T22:55:19.034Z,0.50
2023-04-15T22:57:45.458Z,0.40
2023-04-15T23:00:12.310Z,0.33
2023-04-15T23:02:38.885Z,0.40
2023-04-15T23:05:13.024Z,0.40
2023-04-15T23:07:40.029Z,0.32
2023-04-15T23:10:07.959Z,0.30
2023-04-15T23:12:34.387Z,0.20
2023-04-15T23:15:00.831Z,0.30
2023-04-15T23:17:27.280Z,0.75
2023-04-15T23:19:53.790Z,0.30
2023-04-15T23:22:20.184Z,0.25
2023-04-15T23:24:46.620Z,0.40
2023-04-15T23:27:12.988Z,0.52
2023-04-15T23:29:39.374Z,0.20
2023-04-15T23:32:06.476Z,0.40
2023-04-15T23:34:32.828Z,0.40
2023-04-15T23:36:59.183Z,0.30
2023-04-15T23:39:25.607Z,0.40
2023-04-15T23:41:51.947Z,0.40
2023-04-15T23:44:18.380Z,0.45
2023-04-15T23:46:44.770Z,0.30
2023-04-15T23:49:11.286Z,0.40
2023-04-15T23:51:37.827Z,0.20
2023-04-15T23:54:04.204Z,0.50
2023-04-15T23:56:31.341Z,0.35
2023-04-15T23:58:57.806Z,0.77
